Site contains unofficial IBTrACS data. Visit the IBTrACS Website to access archived data.

1861 NOT_NAMED (1861052S08069)


IBTrACS version v04r00. Visit IBTrACS website for data access.
Please direct all questions to the IBTrACS Q and A forum

Storm track - Intensity - Wind Radii - Intensity Data - Source Data - All data

Summary Information

Storm ID 1861052S08069
Start Feb 21 06Z
End Mar 1 06Z
ATCF IDs
Track status Best track data.

Storm track plot

Map of storm track

Intensity plots

No Intensity information for this storm


Radial wind information

No radial wind information for this storm


Position and Intensity Table

BASIN ISO_TIME_________ NATURE LAT LON
degrees north degrees east
SI 1861-02-21 06:00:00 NR -8.30 69.00
SI 09:00:00 NR -8.42 68.87
SI 12:00:00 NR -8.55 68.74
SI 15:00:00 NR -8.70 68.60
SI 18:00:00 NR -8.83 68.53
SI 21:00:00 NR -9.04 68.39
SI 1861-02-22 00:00:00 NR -9.30 68.20
SI 03:00:00 NR -9.60 67.96
SI 06:00:00 NR -9.95 67.65
SI 09:00:00 NR -10.35 67.29
SI 12:00:00 NR -10.80 66.89
SI 15:00:00 NR -11.29 66.47
SI 18:00:00 NR -11.81 66.02
SI 21:00:00 NR -12.36 65.57
SI 1861-02-23 00:00:00 NR -12.94 65.11
SI 03:00:00 NR -13.52 64.65
SI 06:00:00 NR -14.10 64.20
SI 09:00:00 NR -14.65 63.76
SI 12:00:00 NR -15.20 63.32
SI 15:00:00 NR -15.75 62.88
SI 18:00:00 NR -16.32 62.45
SI 21:00:00 NR -16.93 62.02
SI 1861-02-24 00:00:00 NR -17.55 61.61
SI 03:00:00 NR -18.15 61.21
SI 06:00:00 NR -18.70 60.85
SI 09:00:00 NR -19.17 60.53
SI 12:00:00 NR -19.59 60.25
SI 15:00:00 NR -19.99 59.99
SI 18:00:00 NR -20.40 59.74
SI 21:00:00 NR -20.81 59.49
SI 1861-02-25 00:00:00 NR -21.24 59.24
SI 03:00:00 NR -21.69 58.98
SI 06:00:00 NR -22.15 58.70
SI 09:00:00 NR -22.66 58.35
SI 12:00:00 NR -23.18 57.99
SI 15:00:00 NR -23.71 57.62
SI 18:00:00 NR -24.23 57.27
SI 21:00:00 NR -24.73 56.98
SI 1861-02-26 00:00:00 NR -25.21 56.71
SI 03:00:00 NR -25.70 56.46
SI 06:00:00 NR -26.20 56.20
SI 09:00:00 NR -26.74 55.91
SI 12:00:00 NR -27.29 55.60
SI 15:00:00 NR -27.84 55.31
SI 18:00:00 NR -28.37 55.02
SI 21:00:00 NR -28.87 54.77
SI 1861-02-27 00:00:00 NR -29.35 54.53
SI 03:00:00 NR -29.80 54.30
SI 06:00:00 NR -30.20 54.10
SI 09:00:00 NR -30.57 53.90
SI 12:00:00 NR -30.90 53.72
SI 15:00:00 NR -31.19 53.56
SI 18:00:00 NR -31.45 53.41
SI 21:00:00 NR -31.69 53.29
SI 1861-02-28 00:00:00 NR -31.91 53.17
SI 03:00:00 NR -32.11 53.05
SI 06:00:00 NR -32.30 52.94
SI 09:00:00 NR -32.48 52.82
SI 12:00:00 NR -32.65 52.75
SI 15:00:00 NR -32.81 52.68
SI 18:00:00 NR -32.96 52.62
SI 21:00:00 NR -33.10 52.56
SI 1861-03-01 00:00:00 NR -33.23 52.50
SI 03:00:00 NR -33.37 52.45
SI 06:00:00 NR -33.50 52.40

Source Information

Agency Information
USA
TOKYO
CMA
HKO
NEWDELHI
REUNION WMO-Best-Tracks.txt:Line=361:xxxx861052
BOM
NADI
WELLINGTON
DS824
TD9636 cons_worldwide_trop_cyclone_18710101-19891231-005:Line=488
TD9635
NEUMANN
MLC

All available IBTrACS Data

SEASON BASIN SUBBASIN ISO_TIME_________ NATURE LAT LON WMO AGENCY DIST2LAND LANDFALL IFLAG USA SSHS REUNION LAT REUNION LON REUNION TYPE REUNION TNUM TD9636 LAT TD9636 LON TD9636 STAGE STORM SPEED STORM DIR
Year degrees north degrees east km km 1 degrees north degrees east 1 degrees north degrees east kts degrees
1861 SI MM 1861-02-21 06:00:00 NR -8.30 69.00 reunion 1795 1779 _____O________ -1 -8.30 69.00 99 9.90 3 225
1861 SI MM 09:00:00 NR -8.42 68.87 1779 1764 _____P________ -1 -8.42 68.87 99 4 225
1861 SI MM 12:00:00 NR -8.55 68.74 1748 1732 _____P________ -1 -8.55 68.74 99 4 225
1861 SI MM 15:00:00 NR -8.70 68.60 1732 1717 _____P________ -1 -8.70 68.60 99 4 217
1861 SI MM 18:00:00 NR -8.83 68.53 1717 1692 _____P____O___ -1 -8.86 68.44 99 -8.70 68.90 7 4 211
1861 SI MM 21:00:00 NR -9.04 68.39 1692 1653 _____P____P___ -1 -9.06 68.25 99 -8.99 68.66 7 6 215
1861 SI MM 1861-02-22 00:00:00 NR -9.30 68.20 1653 1613 _____P____P___ -1 -9.29 68.04 99 -9.30 68.41 7 7 217
1861 SI MM 03:00:00 NR -9.60 67.96 1613 1566 _____P____P___ -1 -9.57 67.79 99 -9.63 68.13 7 9 219
1861 SI MM 06:00:00 NR -9.95 67.65 reunion 1566 1503 _____O____O___ -1 -9.90 67.50 99 9.90 -10.00 67.80 7 10 221
1861 SI MM 09:00:00 NR -10.35 67.29 1495 1433 _____P____P___ -1 -10.29 67.16 99 -10.42 67.42 7 11 221
1861 SI MM 12:00:00 NR -10.80 66.89 1433 1362 _____P____P___ -1 -10.73 66.79 99 -10.88 67.00 7 12 221
1861 SI MM 15:00:00 NR -11.29 66.47 1362 1284 _____P____P___ -1 -11.21 66.38 99 -11.37 66.56 7 13 220
1861 SI MM 18:00:00 NR -11.81 66.02 1284 1213 _____P____O___ -1 -11.73 65.94 99 -11.90 66.10 7 14 219
1861 SI MM 21:00:00 NR -12.36 65.57 1205 1127 _____P____P___ -1 -12.27 65.49 99 -12.45 65.65 7 14 218
1861 SI MM 1861-02-23 00:00:00 NR -12.94 65.11 1127 1048 _____P____P___ -1 -12.84 65.03 99 -13.03 65.20 7 15 218
1861 SI MM 03:00:00 NR -13.52 64.65 1048 963 _____P____P___ -1 -13.42 64.56 99 -13.62 64.75 7 15 217
1861 SI MM 06:00:00 NR -14.10 64.20 reunion 963 893 _____O____O___ -1 -14.00 64.10 99 9.90 -14.20 64.30 7 14 218
1861 SI MM 09:00:00 NR -14.65 63.76 893 807 _____P____P___ -1 -14.57 63.65 99 -14.72 63.86 7 14 218
1861 SI MM 12:00:00 NR -15.20 63.32 807 738 _____P____P___ -1 -15.16 63.20 99 -15.23 63.43 7 14 217
1861 SI MM 15:00:00 NR -15.75 62.88 730 661 _____P____P___ -1 -15.75 62.75 99 -15.75 63.01 7 14 216
1861 SI MM 18:00:00 NR -16.32 62.45 661 577 _____P____O___ -1 -16.35 62.31 99 -16.30 62.60 7 14 215
1861 SI MM 21:00:00 NR -16.93 62.02 577 503 _____P____P___ -1 -16.93 61.87 99 -16.93 62.17 7 15 213
1861 SI MM 1861-02-24 00:00:00 NR -17.55 61.61 503 430 _____P____P___ -1 -17.51 61.46 99 -17.59 61.76 7 14 213
1861 SI MM 03:00:00 NR -18.15 61.21 430 370 _____P____P___ -1 -18.07 61.07 99 -18.22 61.36 7 14 212
1861 SI MM 06:00:00 NR -18.70 60.85 reunion 370 322 _____O____O___ -1 -18.60 60.70 99 9.90 -18.80 61.00 7 12 212
1861 SI MM 09:00:00 NR -19.17 60.53 308 272 _____P____P___ -1 -19.08 60.38 99 -19.26 60.69 7 11 212
1861 SI MM 12:00:00 NR -19.59 60.25 272 232 _____P____P___ -1 -19.53 60.09 99 -19.65 60.41 7 10 212
1861 SI MM 15:00:00 NR -19.99 59.99 232 208 _____P____P___ -1 -19.97 59.82 99 -20.02 60.15 7 9 211
1861 SI MM 18:00:00 NR -20.40 59.74 198 182 _____P____O___ -1 -20.39 59.57 99 -20.40 59.90 7 9 210
1861 SI MM 21:00:00 NR -20.81 59.49 185 179 _____P____P___ -1 -20.81 59.33 99 -20.82 59.64 7 10 209
1861 SI MM 1861-02-25 00:00:00 NR -21.24 59.24 174 174 _____P____P___ -1 -21.23 59.09 99 -21.25 59.39 7 10 209
1861 SI MM 03:00:00 NR -21.69 58.98 190 190 _____P____P___ -1 -21.66 58.85 99 -21.71 59.11 7 10 209
1861 SI MM 06:00:00 NR -22.15 58.70 reunion 206 211 _____O____O___ -1 -22.10 58.60 99 9.90 -22.20 58.80 7 11 211
1861 SI MM 09:00:00 NR -22.66 58.35 256 253 _____P____P___ -1 -22.58 58.30 99 -22.73 58.41 7 12 213
1861 SI MM 12:00:00 NR -23.18 57.99 303 302 _____P____P___ -1 -23.06 57.99 99 -23.29 57.99 7 13 213
1861 SI MM 15:00:00 NR -23.71 57.62 325 325 _____P____P___ -1 -23.56 57.67 99 -23.86 57.57 7 12 212
1861 SI MM 18:00:00 NR -24.23 57.27 358 358 _____P____O___ -1 -24.06 57.35 99 -24.40 57.20 7 12 210
1861 SI MM 21:00:00 NR -24.73 56.98 395 395 _____P____P___ -1 -24.57 57.03 99 -24.88 56.93 7 11 207
1861 SI MM 1861-02-26 00:00:00 NR -25.21 56.71 439 439 _____P____P___ -1 -25.08 56.71 99 -25.35 56.72 7 11 206
1861 SI MM 03:00:00 NR -25.70 56.46 489 487 _____P____P___ -1 -25.59 56.40 99 -25.81 56.52 7 11 205
1861 SI MM 06:00:00 NR -26.20 56.20 reunion 539 539 _____O____O___ -1 -26.10 56.10 99 9.90 -26.30 56.30 7 12 206
1861 SI MM 09:00:00 NR -26.74 55.91 593 593 _____P____P___ -1 -26.63 55.80 99 -26.84 56.01 7 12 206
1861 SI MM 12:00:00 NR -27.29 55.60 659 659 _____P____P___ -1 -27.17 55.51 99 -27.41 55.70 7 12 206
1861 SI MM 15:00:00 NR -27.84 55.31 715 715 _____P____P___ -1 -27.71 55.22 99 -27.97 55.39 7 12 205
1861 SI MM 18:00:00 NR -28.37 55.02 784 784 _____P____O___ -1 -28.23 54.95 99 -28.50 55.10 7 11 205
1861 SI MM 21:00:00 NR -28.87 54.77 841 841 _____P____P___ -1 -28.74 54.69 99 -29.00 54.84 7 11 204
1861 SI MM 1861-02-27 00:00:00 NR -29.35 54.53 880 878 _____P____P___ -1 -29.23 54.44 99 -29.47 54.61 7 10 203
1861 SI MM 03:00:00 NR -29.80 54.30 889 887 _____P____P___ -1 -29.68 54.21 99 -29.91 54.40 7 9 204
1861 SI MM 06:00:00 NR -30.20 54.10 reunion 900 900 _____O____O___ -1 -30.10 54.00 99 9.90 -30.30 54.20 7 8 204
1861 SI MM 09:00:00 NR -30.57 53.90 914 914 _____P____P___ -1 -30.48 53.80 99 -30.66 54.00 7 8 205
1861 SI MM 12:00:00 NR -30.90 53.72 922 922 _____P____P___ -1 -30.82 53.62 99 -30.97 53.81 7 7 205
1861 SI MM 15:00:00 NR -31.19 53.56 938 931 _____P____P___ -1 -31.13 53.47 99 -31.25 53.64 7 6 205
1861 SI MM 18:00:00 NR -31.45 53.41 949 949 _____P____O___ -1 -31.41 53.33 99 -31.50 53.50 7 6 204
1861 SI MM 21:00:00 NR -31.69 53.29 959 959 _____P____P___ -1 -31.66 53.20 99 -31.72 53.38 7 5 205
1861 SI MM 1861-02-28 00:00:00 NR -31.91 53.17 970 964 _____P____P___ -1 -31.89 53.09 99 -31.93 53.28 7 5 205
1861 SI MM 03:00:00 NR -32.11 53.05 981 975 _____P____P___ -1 -32.11 52.99 99 -32.12 53.18 7 4 206
1861 SI MM 06:00:00 NR -32.30 52.94 reunion 987 987 _____O____O___ -1 -32.30 52.90 99 9.90 -32.30 53.10 7 4 208
1861 SI MM 09:00:00 NR -32.48 52.82 1000 1000 _____P________ -1 -32.48 52.82 99 7 4 205
1861 SI MM 12:00:00 NR -32.65 52.75 1003 1003 _____P________ -1 -32.65 52.75 99 7 3 200
1861 SI MM 15:00:00 NR -32.81 52.68 1022 1022 _____P________ -1 -32.81 52.68 99 7 3 200
1861 SI MM 18:00:00 NR -32.96 52.62 1035 1035 _____P________ -1 -32.96 52.62 99 3 198
1861 SI MM 21:00:00 NR -33.10 52.56 1044 1039 _____P________ -1 -33.10 52.56 99 3 199
1861 SI MM 1861-03-01 00:00:00 NR -33.23 52.50 1049 1049 _____P________ -1 -33.23 52.50 99 3 199
1861 SI MM 03:00:00 NR -33.37 52.45 1068 1063 _____P________ -1 -33.37 52.45 99 3 199
1861 SI MM 06:00:00 NR -33.50 52.40 reunion 1072 _____O________ -1 -33.50 52.40 99 9.90 3 196